Time;durP1;ratioP1;P1;durP2;ratioP2;P2;SDS_P1;SDS_P2;PMS_P1;PMS_P2;Temp;Humidity;BMP_temperature;BMP_pressure;BME280_temperature;BME280_humidity;BME280_pressure;Samples;Min_cycle;Max_cycle;Signal;HPM_P1;HPM_P2
2023/07/16 00:00:04;;;;;;;12.00;4.95;;;;;;;;;;5033551;28;20053;-74
2023/07/16 00:02:30;;;;;;;13.40;4.68;;;;;;;;;;5033543;28;20037;-74
2023/07/16 00:04:57;;;;;;;15.35;5.45;;;;;;;;;;5033993;28;20148;-74
2023/07/16 00:07:23;;;;;;;9.23;4.68;;;;;;;;;;5032707;28;20048;-73
2023/07/16 00:09:49;;;;;;;13.18;5.18;;;;;;;;;;5034652;28;20045;-74
2023/07/16 00:12:15;;;;;;;13.10;4.80;;;;;;;;;;5031614;28;20492;-73
2023/07/16 00:14:41;;;;;;;14.75;5.95;;;;;;;;;;5023162;28;20362;-74
2023/07/16 00:17:07;;;;;;;15.10;5.45;;;;;;;;;;5030753;28;20033;-74
2023/07/16 00:19:33;;;;;;;13.07;6.03;;;;;;;;;;5034410;28;20496;-74
2023/07/16 00:22:00;;;;;;;14.98;5.55;;;;;;;;;;5029720;28;20052;-74
2023/07/16 00:24:26;;;;;;;12.13;5.30;;;;;;;;;;5034532;28;20056;-74
2023/07/16 00:26:52;;;;;;;14.43;5.18;;;;;;;;;;5029781;28;20072;-74
2023/07/16 00:29:19;;;;;;;14.40;5.38;;;;;;;;;;5021433;28;20053;-74
2023/07/16 00:31:45;;;;;;;15.40;6.13;;;;;;;;;;5034387;28;20052;-74
2023/07/16 00:34:12;;;;;;;12.80;5.00;;;;;;;;;;5033952;28;20137;-74
2023/07/16 00:36:39;;;;;;;14.45;4.65;;;;;;;;;;5032851;28;20067;-74
2023/07/16 00:39:05;;;;;;;14.65;5.13;;;;;;;;;;5032721;28;20051;-74
2023/07/16 00:41:31;;;;;;;13.00;5.57;;;;;;;;;;5028276;28;20100;-74
2023/07/16 00:43:57;;;;;;;13.82;5.05;;;;;;;;;;5033051;28;20495;-74
2023/07/16 00:46:24;;;;;;;14.40;5.18;;;;;;;;;;5032700;28;20092;-74
2023/07/16 00:48:50;;;;;;;14.52;5.72;;;;;;;;;;5033410;28;20052;-74
2023/07/16 00:51:16;;;;;;;9.48;4.43;;;;;;;;;;5029074;28;20104;-73
2023/07/16 00:53:43;;;;;;;15.38;5.00;;;;;;;;;;5034029;28;20341;-74
2023/07/16 00:56:10;;;;;;;11.35;4.55;;;;;;;;;;5033596;28;20060;-74
2023/07/16 00:58:36;;;;;;;12.30;5.03;;;;;;;;;;5025476;28;20038;-74
2023/07/16 01:01:02;;;;;;;8.50;4.07;;;;;;;;;;5014099;28;20483;-74
2023/07/16 01:03:29;;;;;;;10.82;4.30;;;;;;;;;;5022197;28;20563;-74
2023/07/16 01:06:05;;;;;;;11.88;4.63;;;;;;;;;;5014090;28;20136;-74
2023/07/16 01:08:43;;;;;;;10.30;4.28;;;;;;;;;;5025718;28;20438;-74
2023/07/16 01:11:10;;;;;;;12.63;4.82;;;;;;;;;;5017471;28;20037;-74
2023/07/16 01:13:36;;;;;;;11.93;4.57;;;;;;;;;;5023388;28;20041;-74
2023/07/16 01:16:02;;;;;;;11.23;4.38;;;;;;;;;;5031836;28;20077;-74
2023/07/16 01:18:28;;;;;;;9.23;3.80;;;;;;;;;;5031508;28;20498;-74
2023/07/16 01:20:54;;;;;;;11.43;4.78;;;;;;;;;;5033124;28;20412;-74
2023/07/16 01:23:33;;;;;;;14.25;4.45;;;;;;;;;;5033794;28;20041;-74
2023/07/16 01:25:59;;;;;;;8.00;3.90;;;;;;;;;;5033104;28;20042;-74
2023/07/16 01:28:25;;;;;;;9.32;3.83;;;;;;;;;;5030070;28;20059;-74
2023/07/16 01:30:52;;;;;;;10.27;4.40;;;;;;;;;;5018475;28;20104;-74
2023/07/16 01:33:20;;;;;;;11.38;3.90;;;;;;;;;;5014184;28;20050;-74
2023/07/16 01:35:47;;;;;;;10.02;4.25;;;;;;;;;;5027252;28;20071;-74
2023/07/16 01:38:15;;;;;;;8.68;4.03;;;;;;;;;;5032747;28;20124;-74
2023/07/16 01:40:41;;;;;;;9.88;4.50;;;;;;;;;;5031666;28;20072;-74
2023/07/16 01:43:08;;;;;;;10.93;4.78;;;;;;;;;;5033252;28;20049;-74
2023/07/16 01:45:34;;;;;;;9.20;4.20;;;;;;;;;;5025642;28;20042;-74
2023/07/16 01:48:13;;;;;;;14.05;4.80;;;;;;;;;;5027758;28;20057;-74
2023/07/16 01:50:40;;;;;;;9.13;4.22;;;;;;;;;;5025968;28;20107;-74
2023/07/16 01:53:06;;;;;;;10.27;4.07;;;;;;;;;;5031067;28;20049;-74
2023/07/16 01:55:32;;;;;;;20.00;5.07;;;;;;;;;;5028289;28;20053;-74
2023/07/16 01:57:58;;;;;;;18.02;5.30;;;;;;;;;;5031426;28;20057;-74
2023/07/16 02:00:24;;;;;;;15.52;4.70;;;;;;;;;;5028462;28;20069;-74
2023/07/16 02:02:50;;;;;;;12.38;4.65;;;;;;;;;;5023105;28;20544;-74
2023/07/16 02:05:16;;;;;;;12.35;4.30;;;;;;;;;;5031204;28;20507;-74
2023/07/16 02:07:42;;;;;;;10.02;4.30;;;;;;;;;;5032622;28;20065;-74
2023/07/16 02:10:09;;;;;;;12.90;4.68;;;;;;;;;;5030680;28;20041;-74
2023/07/16 02:12:35;;;;;;;13.32;3.85;;;;;;;;;;5025947;28;20053;-74
2023/07/16 02:15:02;;;;;;;11.10;4.30;;;;;;;;;;5031287;28;20131;-74
2023/07/16 02:17:28;;;;;;;10.65;4.35;;;;;;;;;;5027634;28;20057;-74
2023/07/16 02:19:54;;;;;;;12.65;4.07;;;;;;;;;;5014627;28;20042;-74
2023/07/16 02:22:20;;;;;;;9.05;3.72;;;;;;;;;;5032462;28;20483;-74
2023/07/16 02:24:46;;;;;;;9.63;3.75;;;;;;;;;;5030799;28;20047;-74
2023/07/16 02:27:12;;;;;;;8.40;3.50;;;;;;;;;;5022839;28;20376;-74
2023/07/16 02:29:38;;;;;;;10.90;4.10;;;;;;;;;;5019244;28;20046;-74
2023/07/16 02:32:04;;;;;;;9.25;3.75;;;;;;;;;;5029244;28;20058;-74
2023/07/16 02:34:30;;;;;;;9.65;3.60;;;;;;;;;;5016406;28;20041;-74
2023/07/16 02:36:56;;;;;;;6.97;3.13;;;;;;;;;;5025811;28;20427;-74
2023/07/16 02:39:22;;;;;;;9.57;3.80;;;;;;;;;;5019740;28;20045;-74
2023/07/16 02:41:49;;;;;;;8.75;3.58;;;;;;;;;;5032397;28;20049;-74
2023/07/16 02:44:15;;;;;;;8.38;3.65;;;;;;;;;;5020698;28;20064;-74
2023/07/16 02:46:41;;;;;;;7.68;3.47;;;;;;;;;;5022961;28;20084;-73
2023/07/16 02:49:07;;;;;;;8.85;3.40;;;;;;;;;;5031290;28;20037;-73
2023/07/16 02:51:34;;;;;;;9.02;3.90;;;;;;;;;;5031927;28;20433;-73
2023/07/16 02:54:00;;;;;;;10.32;4.30;;;;;;;;;;5021763;28;20042;-74
2023/07/16 02:56:26;;;;;;;8.55;4.20;;;;;;;;;;5032840;28;20095;-73
2023/07/16 02:58:52;;;;;;;9.50;4.45;;;;;;;;;;5016769;28;20086;-74
2023/07/16 03:01:18;;;;;;;10.50;5.05;;;;;;;;;;5022779;28;20045;-74
2023/07/16 03:03:44;;;;;;;13.27;5.20;;;;;;;;;;5029807;28;20042;-74
2023/07/16 03:06:10;;;;;;;15.10;5.47;;;;;;;;;;5032622;28;20057;-74
2023/07/16 03:08:36;;;;;;;13.82;5.25;;;;;;;;;;5034740;28;20387;-74
2023/07/16 03:11:02;;;;;;;15.35;5.65;;;;;;;;;;5034491;28;20045;-74
2023/07/16 03:13:28;;;;;;;12.88;5.78;;;;;;;;;;5034398;28;20053;-74
2023/07/16 03:15:54;;;;;;;13.43;6.18;;;;;;;;;;5032721;28;20056;-74
2023/07/16 03:18:21;;;;;;;12.38;5.63;;;;;;;;;;5032812;28;20120;-74
2023/07/16 03:20:47;;;;;;;13.43;5.63;;;;;;;;;;5035749;28;20068;-74
2023/07/16 03:23:14;;;;;;;10.63;5.45;;;;;;;;;;5036132;28;20042;-74
2023/07/16 03:25:40;;;;;;;16.23;5.82;;;;;;;;;;5034801;28;20380;-74
2023/07/16 03:28:06;;;;;;;15.43;5.72;;;;;;;;;;5035393;28;20060;-74
2023/07/16 03:30:32;;;;;;;14.50;6.22;;;;;;;;;;5035320;28;20046;-74
2023/07/16 03:32:59;;;;;;;14.25;5.88;;;;;;;;;;5028154;28;20424;-74
2023/07/16 03:35:25;;;;;;;11.02;5.85;;;;;;;;;;5031990;28;20492;-74
2023/07/16 03:37:51;;;;;;;14.27;6.18;;;;;;;;;;5035344;28;20045;-74
2023/07/16 03:40:19;;;;;;;13.95;6.50;;;;;;;;;;5016137;28;20068;-74
2023/07/16 03:42:45;;;;;;;10.75;5.47;;;;;;;;;;5027200;28;20055;-74
2023/07/16 03:45:11;;;;;;;11.77;6.45;;;;;;;;;;5035275;28;20049;-74
2023/07/16 03:47:37;;;;;;;13.95;6.10;;;;;;;;;;5035338;28;20124;-74
2023/07/16 03:50:04;;;;;;;16.55;6.55;;;;;;;;;;5035458;28;20152;-74
2023/07/16 03:52:30;;;;;;;13.25;6.25;;;;;;;;;;5032987;28;20396;-74
2023/07/16 03:54:56;;;;;;;13.25;6.32;;;;;;;;;;5033414;28;20392;-74
2023/07/16 03:57:22;;;;;;;12.40;5.78;;;;;;;;;;5034672;28;20053;-74
2023/07/16 03:59:48;;;;;;;13.10;6.30;;;;;;;;;;5022946;28;20479;-74
2023/07/16 04:02:14;;;;;;;13.77;6.38;;;;;;;;;;5015050;28;20570;-74
2023/07/16 04:04:40;;;;;;;11.32;6.38;;;;;;;;;;5024640;28;20077;-74
2023/07/16 04:07:06;;;;;;;13.85;6.78;;;;;;;;;;5034848;28;20048;-74
2023/07/16 04:09:32;;;;;;;15.98;6.25;;;;;;;;;;5035119;28;20056;-74
2023/07/16 04:11:58;;;;;;;13.75;6.18;;;;;;;;;;5034546;28;20049;-74
2023/07/16 04:14:25;;;;;;;12.07;6.05;;;;;;;;;;5030376;28;20049;-74
2023/07/16 04:16:51;;;;;;;15.63;6.22;;;;;;;;;;5028717;28;20049;-74
2023/07/16 04:19:17;;;;;;;10.45;6.28;;;;;;;;;;5032580;28;20049;-74
2023/07/16 04:21:43;;;;;;;11.57;5.82;;;;;;;;;;5017296;28;20046;-74
2023/07/16 04:24:09;;;;;;;10.55;5.80;;;;;;;;;;5026005;28;20669;-74
2023/07/16 04:26:35;;;;;;;12.18;6.13;;;;;;;;;;5030385;28;20408;-74
2023/07/16 04:29:01;;;;;;;12.85;6.22;;;;;;;;;;5022565;28;20067;-74
2023/07/16 04:31:27;;;;;;;12.00;6.40;;;;;;;;;;5031555;28;20053;-74
2023/07/16 04:33:53;;;;;;;15.13;6.20;;;;;;;;;;5022610;28;20053;-74
2023/07/16 04:36:19;;;;;;;12.35;6.35;;;;;;;;;;5015769;28;20095;-74
2023/07/16 04:38:45;;;;;;;11.88;5.72;;;;;;;;;;5014922;28;20050;-74
2023/07/16 04:41:12;;;;;;;15.18;6.72;;;;;;;;;;5032526;28;20049;-74
2023/07/16 04:43:38;;;;;;;13.02;6.85;;;;;;;;;;5034255;28;20484;-74
2023/07/16 04:46:05;;;;;;;13.30;6.40;;;;;;;;;;5032139;28;20488;-74
2023/07/16 04:48:31;;;;;;;11.45;5.82;;;;;;;;;;5032234;28;20159;-74
2023/07/16 04:50:57;;;;;;;13.73;7.55;;;;;;;;;;5032923;28;20049;-74
2023/07/16 04:53:23;;;;;;;13.57;6.28;;;;;;;;;;5020273;28;20136;-74
2023/07/16 04:55:49;;;;;;;15.38;6.38;;;;;;;;;;5013778;28;20490;-74
2023/07/16 04:58:16;;;;;;;17.58;5.97;;;;;;;;;;5023981;28;20072;-74
2023/07/16 05:00:42;;;;;;;13.57;6.53;;;;;;;;;;5024495;28;20037;-74
2023/07/16 05:03:08;;;;;;;12.18;5.72;;;;;;;;;;5014421;28;20125;-74
2023/07/16 05:05:34;;;;;;;13.88;5.97;;;;;;;;;;5033485;28;20507;-74
2023/07/16 05:08:01;;;;;;;14.25;6.40;;;;;;;;;;5033141;28;20045;-74
2023/07/16 05:10:27;;;;;;;10.32;5.18;;;;;;;;;;5033393;28;20486;-74
2023/07/16 05:12:53;;;;;;;13.07;5.78;;;;;;;;;;5032845;28;20037;-74
2023/07/16 05:15:19;;;;;;;11.55;5.53;;;;;;;;;;5032706;28;20048;-74
2023/07/16 05:17:46;;;;;;;16.65;5.93;;;;;;;;;;5033307;28;20041;-74
2023/07/16 05:20:12;;;;;;;14.75;5.47;;;;;;;;;;5014122;28;20042;-74
2023/07/16 05:22:38;;;;;;;12.68;6.05;;;;;;;;;;5030353;28;20046;-74
2023/07/16 05:25:04;;;;;;;14.50;6.32;;;;;;;;;;5032279;28;20055;-74
2023/07/16 05:27:30;;;;;;;13.02;6.25;;;;;;;;;;5022117;28;20049;-74
2023/07/16 05:29:56;;;;;;;14.48;5.88;;;;;;;;;;5015072;28;20455;-74
2023/07/16 05:32:22;;;;;;;11.80;5.78;;;;;;;;;;5030933;28;20045;-74
2023/07/16 05:34:49;;;;;;;10.00;5.50;;;;;;;;;;5014842;28;20135;-74
2023/07/16 05:37:15;;;;;;;13.73;5.65;;;;;;;;;;5029192;28;20053;-74
2023/07/16 05:39:41;;;;;;;10.25;5.45;;;;;;;;;;5028585;28;20537;-74
2023/07/16 05:42:07;;;;;;;11.13;5.93;;;;;;;;;;5031754;28;20042;-74
2023/07/16 05:44:34;;;;;;;14.85;6.47;;;;;;;;;;4995817;28;20054;-74
2023/07/16 05:47:00;;;;;;;15.85;6.38;;;;;;;;;;4995632;28;20042;-74
2023/07/16 05:49:26;;;;;;;12.38;6.57;;;;;;;;;;5033171;28;20468;-74
2023/07/16 05:51:54;;;;;;;13.77;6.22;;;;;;;;;;5032955;28;20472;-73
2023/07/16 05:54:20;;;;;;;9.68;6.07;;;;;;;;;;5031611;28;20454;-74
2023/07/16 05:56:46;;;;;;;17.27;6.18;;;;;;;;;;5029193;28;20148;-74
2023/07/16 05:59:12;;;;;;;12.80;5.60;;;;;;;;;;5025423;28;20037;-74
2023/07/16 06:01:38;;;;;;;11.05;5.80;;;;;;;;;;5032699;28;20128;-74
2023/07/16 06:04:04;;;;;;;12.85;5.55;;;;;;;;;;5030929;28;20045;-74
2023/07/16 06:06:31;;;;;;;15.07;5.25;;;;;;;;;;5030124;28;20037;-74
2023/07/16 06:08:57;;;;;;;11.95;6.22;;;;;;;;;;5027855;28;20454;-74
2023/07/16 06:11:23;;;;;;;13.80;5.45;;;;;;;;;;5027095;28;20048;-75
2023/07/16 06:13:49;;;;;;;12.27;5.53;;;;;;;;;;5027596;28;20053;-74
2023/07/16 06:16:15;;;;;;;9.40;5.32;;;;;;;;;;5026776;28;20053;-74
2023/07/16 06:18:41;;;;;;;10.57;5.10;;;;;;;;;;5032923;28;20049;-74
2023/07/16 06:21:08;;;;;;;12.30;5.65;;;;;;;;;;5031334;28;20049;-74
2023/07/16 06:23:34;;;;;;;11.57;5.10;;;;;;;;;;5020504;28;20103;-79
2023/07/16 06:26:00;;;;;;;11.98;5.38;;;;;;;;;;5032525;28;20119;-76
2023/07/16 06:28:26;;;;;;;9.38;5.38;;;;;;;;;;5017130;28;20088;-76
2023/07/16 06:30:52;;;;;;;16.85;6.05;;;;;;;;;;5030252;28;20077;-75
2023/07/16 06:33:18;;;;;;;12.00;4.97;;;;;;;;;;5030947;28;20496;-75
2023/07/16 06:35:47;;;;;;;12.07;5.28;;;;;;;;;;5031457;28;20550;-75
2023/07/16 06:38:14;;;;;;;11.25;5.05;;;;;;;;;;5032842;28;20125;-75
2023/07/16 06:40:40;;;;;;;13.48;5.35;;;;;;;;;;5035275;28;20192;-75
2023/07/16 06:43:06;;;;;;;10.65;5.28;;;;;;;;;;5017456;28;20125;-75
2023/07/16 06:45:32;;;;;;;14.48;5.65;;;;;;;;;;5033870;28;20131;-75
2023/07/16 06:47:58;;;;;;;10.68;5.30;;;;;;;;;;5026347;28;20072;-75
2023/07/16 06:50:24;;;;;;;11.85;5.68;;;;;;;;;;5035040;28;20076;-75
2023/07/16 06:52:50;;;;;;;13.88;6.63;;;;;;;;;;5036079;28;20041;-75
2023/07/16 06:55:16;;;;;;;13.27;5.63;;;;;;;;;;5036168;28;20046;-75
2023/07/16 06:57:42;;;;;;;12.88;5.63;;;;;;;;;;5035161;28;20045;-76
2023/07/16 07:00:12;;;;;;;9.25;5.65;;;;;;;;;;5021263;28;20373;-76
2023/07/16 07:02:38;;;;;;;13.40;6.53;;;;;;;;;;5027021;28;20033;-80
2023/07/16 07:05:04;;;;;;;10.30;5.57;;;;;;;;;;5036610;28;20049;-76
2023/07/16 07:07:30;;;;;;;11.75;5.70;;;;;;;;;;5020059;28;20203;-75
2023/07/16 07:09:56;;;;;;;14.43;5.57;;;;;;;;;;5027780;28;20050;-75
2023/07/16 07:12:22;;;;;;;11.20;5.07;;;;;;;;;;5012721;28;20042;-77
2023/07/16 07:14:48;;;;;;;11.80;5.30;;;;;;;;;;5033269;28;20041;-75
2023/07/16 07:17:15;;;;;;;11.25;5.15;;;;;;;;;;5033947;28;20492;-75
2023/07/16 07:19:41;;;;;;;10.43;4.90;;;;;;;;;;5025979;28;20056;-75
2023/07/16 07:22:07;;;;;;;11.68;4.75;;;;;;;;;;5015919;28;20041;-77
2023/07/16 07:24:33;;;;;;;12.65;5.70;;;;;;;;;;5023425;28;20091;-77
2023/07/16 07:26:59;;;;;;;11.43;4.90;;;;;;;;;;5033048;28;20041;-75
2023/07/16 07:29:26;;;;;;;11.00;5.03;;;;;;;;;;5020136;28;20059;-75
2023/07/16 07:31:53;;;;;;;10.15;4.50;;;;;;;;;;5035287;28;20484;-75
2023/07/16 07:34:19;;;;;;;14.90;5.00;;;;;;;;;;5035460;28;20046;-75
2023/07/16 07:36:45;;;;;;;12.65;5.65;;;;;;;;;;5030920;28;20047;-75
2023/07/16 07:39:13;;;;;;;10.60;5.65;;;;;;;;;;5020345;28;20045;-75
2023/07/16 07:41:39;;;;;;;12.10;5.70;;;;;;;;;;5019455;28;20074;-75
2023/07/16 07:44:05;;;;;;;14.90;5.80;;;;;;;;;;5029655;28;20171;-75
2023/07/16 07:46:31;;;;;;;11.18;4.95;;;;;;;;;;5027720;28;20049;-74
2023/07/16 07:48:57;;;;;;;13.52;5.72;;;;;;;;;;5018483;28;20054;-75
2023/07/16 07:51:23;;;;;;;10.68;5.38;;;;;;;;;;5005273;28;20046;-75
2023/07/16 07:53:49;;;;;;;14.25;5.43;;;;;;;;;;5020707;28;20054;-75
2023/07/16 07:56:15;;;;;;;12.23;5.40;;;;;;;;;;5026479;28;20108;-75
2023/07/16 07:58:42;;;;;;;13.63;6.10;;;;;;;;;;5033560;28;20038;-75
2023/07/16 08:01:08;;;;;;;11.95;5.72;;;;;;;;;;5032702;28;20492;-75
2023/07/16 08:03:34;;;;;;;10.73;5.45;;;;;;;;;;5028559;28;20050;-75
2023/07/16 08:06:00;;;;;;;9.85;5.00;;;;;;;;;;5033110;28;20049;-75
2023/07/16 08:08:27;;;;;;;9.80;5.07;;;;;;;;;;5022194;28;20157;-75
2023/07/16 08:10:53;;;;;;;14.15;5.63;;;;;;;;;;5033441;28;20068;-75
2023/07/16 08:13:19;;;;;;;11.63;4.63;;;;;;;;;;5021719;28;20042;-75
2023/07/16 08:15:45;;;;;;;11.98;5.35;;;;;;;;;;5033891;28;20712;-75
2023/07/16 08:18:11;;;;;;;17.00;5.47;;;;;;;;;;5021241;28;20060;-75
2023/07/16 08:20:37;;;;;;;10.57;5.07;;;;;;;;;;5034404;28;20045;-75
2023/07/16 08:23:03;;;;;;;16.10;4.95;;;;;;;;;;5032384;28;20042;-75
2023/07/16 08:25:29;;;;;;;11.57;4.97;;;;;;;;;;5015056;28;20129;-75
2023/07/16 08:27:55;;;;;;;10.07;5.28;;;;;;;;;;5014586;28;20062;-75
2023/07/16 08:30:22;;;;;;;11.07;5.65;;;;;;;;;;5022717;28;20102;-75
2023/07/16 08:32:48;;;;;;;10.38;4.93;;;;;;;;;;5024577;28;20042;-76
2023/07/16 08:35:19;;;;;;;14.60;5.82;;;;;;;;;;5030733;28;20045;-76
2023/07/16 08:37:45;;;;;;;16.52;5.03;;;;;;;;;;5031291;28;20348;-76
2023/07/16 08:40:12;;;;;;;10.77;5.25;;;;;;;;;;5022143;28;20044;-76
2023/07/16 08:42:39;;;;;;;11.75;5.05;;;;;;;;;;5021125;28;20046;-76
2023/07/16 08:45:10;;;;;;;11.52;5.82;;;;;;;;;;5024692;28;20042;-76
2023/07/16 08:47:36;;;;;;;9.55;4.90;;;;;;;;;;5014505;28;20528;-75
2023/07/16 08:50:03;;;;;;;10.85;5.55;;;;;;;;;;5014168;28;20186;-75
2023/07/16 08:52:29;;;;;;;13.55;5.47;;;;;;;;;;5014099;28;20068;-75
2023/07/16 08:54:55;;;;;;;12.15;5.22;;;;;;;;;;5024008;28;20120;-75
2023/07/16 08:57:23;;;;;;;14.55;4.50;;;;;;;;;;5033612;28;20048;-75
2023/07/16 08:59:50;;;;;;;10.95;5.18;;;;;;;;;;5024680;28;20071;-75
2023/07/16 09:02:19;;;;;;;13.63;4.05;;;;;;;;;;5018956;28;20056;-75
2023/07/16 09:04:48;;;;;;;12.50;4.50;;;;;;;;;;5033467;28;20361;-75
2023/07/16 09:07:15;;;;;;;12.48;4.68;;;;;;;;;;5031820;28;20099;-76
2023/07/16 09:09:42;;;;;;;9.27;4.38;;;;;;;;;;5033802;28;20045;-76
2023/07/16 09:12:12;;;;;;;8.27;4.00;;;;;;;;;;5020461;28;20117;-75
2023/07/16 09:14:38;;;;;;;11.48;4.15;;;;;;;;;;5030642;28;20096;-75
2023/07/16 09:17:04;;;;;;;11.95;4.72;;;;;;;;;;5016557;28;20065;-75
2023/07/16 09:19:33;;;;;;;11.18;4.43;;;;;;;;;;5013729;28;20424;-75
2023/07/16 09:21:59;;;;;;;9.80;4.45;;;;;;;;;;5022963;28;20384;-75
2023/07/16 09:24:26;;;;;;;12.02;5.03;;;;;;;;;;5029859;28;20049;-75
2023/07/16 09:26:53;;;;;;;14.55;5.95;;;;;;;;;;5022646;28;20561;-76
2023/07/16 09:29:19;;;;;;;12.10;4.72;;;;;;;;;;5027559;28;20103;-78
2023/07/16 09:31:56;;;;;;;10.98;5.38;;;;;;;;;;5016939;28;20435;-76
2023/07/16 09:34:22;;;;;;;10.63;4.57;;;;;;;;;;5027636;28;20087;-76
2023/07/16 09:36:49;;;;;;;13.20;4.97;;;;;;;;;;5032165;28;20127;-76
2023/07/16 09:39:18;;;;;;;12.40;5.20;;;;;;;;;;5032685;28;20049;-76
2023/07/16 09:41:44;;;;;;;14.77;5.35;;;;;;;;;;5024045;28;20137;-76
2023/07/16 09:44:11;;;;;;;12.40;5.38;;;;;;;;;;5017944;28;20045;-76
2023/07/16 09:46:37;;;;;;;11.38;4.95;;;;;;;;;;5023189;28;20104;-76
2023/07/16 09:49:03;;;;;;;10.52;5.57;;;;;;;;;;5015355;28;20045;-76
2023/07/16 09:51:31;;;;;;;10.23;4.88;;;;;;;;;;5022890;28;20396;-76
2023/07/16 09:53:58;;;;;;;10.27;5.40;;;;;;;;;;5028879;28;20067;-76
2023/07/16 09:56:28;;;;;;;10.60;4.80;;;;;;;;;;5033135;28;20045;-76
2023/07/16 09:58:55;;;;;;;10.95;5.10;;;;;;;;;;5020280;28;20049;-76
2023/07/16 10:01:21;;;;;;;11.00;5.00;;;;;;;;;;5015104;28;20050;-76
2023/07/16 10:03:51;;;;;;;9.07;4.85;;;;;;;;;;5021519;28;20120;-76
2023/07/16 10:06:18;;;;;;;14.27;5.30;;;;;;;;;;5025991;28;20046;-76
2023/07/16 10:08:49;;;;;;;11.75;5.13;;;;;;;;;;5025093;28;20045;-76
2023/07/16 10:11:19;;;;;;;10.13;4.65;;;;;;;;;;5024513;28;20045;-76
2023/07/16 10:13:51;;;;;;;10.75;5.07;;;;;;;;;;5034164;28;20041;-76
2023/07/16 10:16:22;;;;;;;11.13;5.05;;;;;;;;;;5024606;28;20468;-76
2023/07/16 10:18:55;;;;;;;11.32;5.53;;;;;;;;;;5021686;28;20117;-76
2023/07/16 10:21:25;;;;;;;12.20;5.65;;;;;;;;;;5020721;28;20373;-76
2023/07/16 10:23:58;;;;;;;17.67;6.35;;;;;;;;;;5034625;28;20048;-76
2023/07/16 10:26:28;;;;;;;13.60;5.75;;;;;;;;;;5037119;28;20055;-75
2023/07/16 10:28:54;;;;;;;13.32;5.22;;;;;;;;;;5028467;28;20050;-76
2023/07/16 10:31:22;;;;;;;16.40;5.47;;;;;;;;;;5032640;28;20048;-75
2023/07/16 10:34:01;;;;;;;16.40;5.93;;;;;;;;;;5036642;28;20361;-75
2023/07/16 10:36:28;;;;;;;13.30;5.03;;;;;;;;;;5023078;28;20084;-75
2023/07/16 10:38:54;;;;;;;13.15;5.50;;;;;;;;;;5034967;28;20046;-76
2023/07/16 10:41:21;;;;;;;12.63;5.35;;;;;;;;;;5025930;28;20457;-76
2023/07/16 10:43:47;;;;;;;14.10;4.90;;;;;;;;;;5027350;28;20117;-76
2023/07/16 10:46:13;;;;;;;11.75;5.03;;;;;;;;;;5024618;28;20120;-76
2023/07/16 10:48:46;;;;;;;12.68;4.85;;;;;;;;;;5026770;28;20054;-75
2023/07/16 10:51:14;;;;;;;11.13;4.82;;;;;;;;;;5035953;28;20407;-75
2023/07/16 10:53:43;;;;;;;8.70;4.18;;;;;;;;;;5035675;28;20525;-75
2023/07/16 10:56:09;;;;;;;12.25;4.97;;;;;;;;;;5016454;28;20568;-75
2023/07/16 10:58:40;;;;;;;11.85;4.22;;;;;;;;;;5030322;28;20049;-76
2023/07/16 11:01:08;;;;;;;14.93;4.85;;;;;;;;;;5035253;28;20041;-75
2023/07/16 11:03:35;;;;;;;11.32;4.65;;;;;;;;;;5034501;28;20492;-76
2023/07/16 11:06:08;;;;;;;12.35;4.82;;;;;;;;;;5035914;28;20042;-77
2023/07/16 11:08:34;;;;;;;10.48;4.60;;;;;;;;;;5022195;28;20076;-75
2023/07/16 11:11:01;;;;;;;11.93;4.32;;;;;;;;;;5025477;28;20060;-76
2023/07/16 11:13:31;;;;;;;12.77;4.82;;;;;;;;;;5016248;28;20458;-76
2023/07/16 11:15:58;;;;;;;10.95;4.68;;;;;;;;;;5033475;28;20041;-76
2023/07/16 11:18:24;;;;;;;10.90;4.50;;;;;;;;;;5031008;28;20041;-76
2023/07/16 11:20:52;;;;;;;13.98;4.65;;;;;;;;;;5036126;28;20048;-76
2023/07/16 11:23:18;;;;;;;11.05;4.88;;;;;;;;;;5030088;28;20137;-76
2023/07/16 11:25:50;;;;;;;12.98;4.70;;;;;;;;;;5026982;28;20045;-77
2023/07/16 11:28:16;;;;;;;12.68;5.30;;;;;;;;;;5031563;28;20069;-79
2023/07/16 11:30:42;;;;;;;10.15;5.32;;;;;;;;;;5029072;28;20050;-76
2023/07/16 11:33:12;;;;;;;11.88;4.80;;;;;;;;;;5035898;28;20494;-76
2023/07/16 11:35:38;;;;;;;12.60;4.55;;;;;;;;;;5019343;28;20046;-76
2023/07/16 11:38:05;;;;;;;8.02;3.65;;;;;;;;;;5034023;28;20124;-76
2023/07/16 11:40:34;;;;;;;6.68;3.40;;;;;;;;;;5023272;28;20045;-76
2023/07/16 11:43:07;;;;;;;9.82;3.63;;;;;;;;;;5021121;28;20078;-76
2023/07/16 11:45:33;;;;;;;12.77;4.07;;;;;;;;;;5035357;28;20069;-76
2023/07/16 11:47:59;;;;;;;11.18;3.53;;;;;;;;;;5021858;28;20106;-76
2023/07/16 11:50:26;;;;;;;7.82;3.22;;;;;;;;;;5032837;28;20060;-76
2023/07/16 11:52:53;;;;;;;7.88;2.80;;;;;;;;;;5028298;28;20050;-76
2023/07/16 11:55:19;;;;;;;10.30;3.60;;;;;;;;;;5014340;28;20172;-76
2023/07/16 11:57:45;;;;;;;9.68;3.15;;;;;;;;;;5015945;28;20041;-76
2023/07/16 12:00:12;;;;;;;10.65;3.17;;;;;;;;;;5027050;28;20565;-76
2023/07/16 12:02:38;;;;;;;13.88;3.55;;;;;;;;;;5021777;28;20164;-76
2023/07/16 12:05:04;;;;;;;9.40;2.97;;;;;;;;;;5022046;28;20116;-76
2023/07/16 12:07:32;;;;;;;11.35;3.75;;;;;;;;;;5033759;28;20498;-76
2023/07/16 12:09:58;;;;;;;10.88;3.03;;;;;;;;;;5034874;28;20045;-76
2023/07/16 12:12:24;;;;;;;9.73;3.30;;;;;;;;;;5034771;28;20107;-77
2023/07/16 12:14:50;;;;;;;10.35;2.97;;;;;;;;;;5034933;28;20045;-77
2023/07/16 12:17:16;;;;;;;10.73;3.20;;;;;;;;;;5039773;28;20120;-77
2023/07/16 12:19:43;;;;;;;9.55;3.25;;;;;;;;;;5025377;28;20550;-77
2023/07/16 12:22:09;;;;;;;14.63;3.47;;;;;;;;;;5031770;28;20053;-76
2023/07/16 12:24:35;;;;;;;8.43;3.13;;;;;;;;;;5017551;28;20125;-76
2023/07/16 12:27:02;;;;;;;7.85;2.80;;;;;;;;;;5028229;28;20033;-75
2023/07/16 12:29:28;;;;;;;11.65;3.30;;;;;;;;;;5035296;28;20057;-75
2023/07/16 12:31:54;;;;;;;12.18;3.63;;;;;;;;;;5022629;28;20602;-76
2023/07/16 12:34:20;;;;;;;11.73;4.15;;;;;;;;;;5032923;28;20391;-76
2023/07/16 12:36:46;;;;;;;18.38;4.25;;;;;;;;;;5033671;28;20049;-76
2023/07/16 12:39:12;;;;;;;13.70;4.47;;;;;;;;;;5020463;28;20117;-76
2023/07/16 12:41:38;;;;;;;16.77;3.97;;;;;;;;;;5022683;28;20049;-76
2023/07/16 12:44:04;;;;;;;13.45;4.20;;;;;;;;;;5034659;28;20045;-76
2023/07/16 12:46:30;;;;;;;14.20;4.10;;;;;;;;;;5034042;28;20038;-76
2023/07/16 12:48:56;;;;;;;16.02;4.82;;;;;;;;;;5034179;28;20099;-76
2023/07/16 12:51:23;;;;;;;19.58;4.43;;;;;;;;;;5025776;28;20053;-76
2023/07/16 12:53:49;;;;;;;12.32;4.00;;;;;;;;;;5017101;28;20042;-76
2023/07/16 12:56:15;;;;;;;11.68;4.00;;;;;;;;;;5017564;28;20049;-76
2023/07/16 12:58:41;;;;;;;11.93;4.50;;;;;;;;;;5020877;28;20045;-76
2023/07/16 13:01:07;;;;;;;13.07;3.67;;;;;;;;;;5033923;28;20073;-76
2023/07/16 13:03:33;;;;;;;11.50;3.90;;;;;;;;;;5033923;28;20075;-76
2023/07/16 13:06:00;;;;;;;14.45;4.18;;;;;;;;;;5025156;28;20095;-76
2023/07/16 13:08:26;;;;;;;17.35;4.90;;;;;;;;;;5014052;28;20092;-76
2023/07/16 13:10:52;;;;;;;10.13;3.70;;;;;;;;;;5031276;28;20053;-76
2023/07/16 13:13:18;;;;;;;12.35;3.88;;;;;;;;;;5020559;28;20037;-76
2023/07/16 13:15:45;;;;;;;13.95;4.30;;;;;;;;;;5032908;28;20049;-76
2023/07/16 13:18:11;;;;;;;13.00;3.53;;;;;;;;;;5020239;28;20077;-76
2023/07/16 13:20:37;;;;;;;15.20;3.78;;;;;;;;;;5025263;28;20057;-76
2023/07/16 13:23:04;;;;;;;15.07;4.22;;;;;;;;;;5028699;28;20041;-76
2023/07/16 13:25:30;;;;;;;11.30;4.13;;;;;;;;;;5032675;28;20049;-76
2023/07/16 13:27:56;;;;;;;14.70;4.13;;;;;;;;;;5031500;28;20049;-76
2023/07/16 13:30:22;;;;;;;11.23;3.85;;;;;;;;;;5016733;28;20050;-76
2023/07/16 13:32:49;;;;;;;14.82;3.58;;;;;;;;;;5015851;28;20117;-76
2023/07/16 13:35:16;;;;;;;14.02;3.83;;;;;;;;;;5024585;28;20167;-76
2023/07/16 13:37:42;;;;;;;16.08;3.47;;;;;;;;;;5015784;28;20342;-76
2023/07/16 13:40:08;;;;;;;12.38;3.30;;;;;;;;;;5016038;28;20042;-76
2023/07/16 13:42:34;;;;;;;10.15;3.08;;;;;;;;;;5029287;28;20045;-76
2023/07/16 13:45:00;;;;;;;13.25;3.33;;;;;;;;;;5033190;28;20041;-76
2023/07/16 13:47:26;;;;;;;13.73;3.70;;;;;;;;;;5030029;28;20045;-76
2023/07/16 13:49:52;;;;;;;11.43;3.00;;;;;;;;;;5022295;28;20045;-76
2023/07/16 13:52:18;;;;;;;13.32;3.78;;;;;;;;;;5023345;28;20053;-76
2023/07/16 13:54:44;;;;;;;15.23;4.22;;;;;;;;;;5033344;28;20041;-76
2023/07/16 13:57:10;;;;;;;13.23;4.47;;;;;;;;;;5033035;28;20037;-77
2023/07/16 13:59:37;;;;;;;13.35;3.60;;;;;;;;;;5023764;28;20060;-76
2023/07/16 14:02:04;;;;;;;12.57;3.97;;;;;;;;;;5013439;28;20049;-76
2023/07/16 14:04:30;;;;;;;12.68;4.50;;;;;;;;;;5017383;28;20452;-76
2023/07/16 14:06:56;;;;;;;12.18;3.85;;;;;;;;;;5016863;28;20088;-76
2023/07/16 14:09:22;;;;;;;11.65;3.55;;;;;;;;;;5022878;28;20065;-76
2023/07/16 14:11:48;;;;;;;12.93;3.80;;;;;;;;;;5021508;28;20172;-76
2023/07/16 14:14:15;;;;;;;14.30;3.83;;;;;;;;;;5023246;28;20117;-76
2023/07/16 14:16:42;;;;;;;12.38;3.80;;;;;;;;;;5013322;28;20042;-76
2023/07/16 14:19:08;;;;;;;11.43;3.67;;;;;;;;;;5013139;28;20049;-76
2023/07/16 14:21:34;;;;;;;8.95;3.13;;;;;;;;;;5029205;28;20044;-76
2023/07/16 14:24:00;;;;;;;13.65;4.05;;;;;;;;;;5023305;28;20111;-76
2023/07/16 14:26:26;;;;;;;10.70;3.88;;;;;;;;;;5022468;28;20495;-77